Terminal Aerodrome Forecast
Issued by NWS

Home | Current Version | Previous Version | Text Only | Print | Product List | Glossary On
Versions: 1 2 3 4 5 6 7 8 9 10 11 12 13 14 15
000
FTUS43 KAPX 060801 AAA
TAFPLN
TAF AMD
KPLN 060801Z 0608/0706 00000KT P6SM FEW250
      TEMPO 0608/0611 4SM BR
     FM061300 20009KT P6SM SCT250
     FM070000 24005KT P6SM OVC140
     FM070300 22006KT 4SM SHRA OVC030=

USA.gov is the U.S. government's official web portal to all federal, state and local government web resources and services.